Time;durP1;ratioP1;P1;durP2;ratioP2;P2;SDS_P1;SDS_P2;PMS_P1;PMS_P2;Temp;Humidity;BMP_temperature;BMP_pressure;BME280_temperature;BME280_humidity;BME280_pressure;Samples;Min_cycle;Max_cycle;Signal;HPM_P1;HPM_P2
2024/04/24 00:01:18;;;;;;;14.63;9.95;;;;;;;11.66;75.12;93855.81;5482654;26;20040;-77
2024/04/24 00:03:43;;;;;;;20.13;10.55;;;;;;;11.58;75.65;93862.88;5482548;26;20013;-78
2024/04/24 00:06:08;;;;;;;13.52;9.77;;;;;;;11.50;76.00;93857.00;5480512;26;20026;-77
2024/04/24 00:08:34;;;;;;;17.88;11.18;;;;;;;11.56;75.64;93865.38;5483110;26;20043;-77
2024/04/24 00:10:59;;;;;;;15.23;9.95;;;;;;;11.56;75.50;93849.59;5481862;26;19998;-77
2024/04/24 00:13:24;;;;;;;13.40;10.10;;;;;;;11.46;75.88;93856.41;5481157;26;20340;-77
2024/04/24 00:15:50;;;;;;;17.38;10.23;;;;;;;11.42;75.87;93845.56;5479884;26;20009;-78
2024/04/24 00:18:15;;;;;;;15.88;10.18;;;;;;;11.52;75.76;93842.75;5481293;26;20026;-77
2024/04/24 00:20:41;;;;;;;16.48;11.02;;;;;;;11.40;76.17;93852.75;5481962;26;19998;-79
2024/04/24 00:23:06;;;;;;;14.88;10.13;;;;;;;11.30;76.45;93841.06;5481355;26;20334;-78
2024/04/24 00:25:31;;;;;;;19.45;10.07;;;;;;;11.28;76.95;93838.00;5482091;26;19998;-77
2024/04/24 00:27:57;;;;;;;15.10;10.55;;;;;;;11.32;76.58;93844.09;5479627;26;20321;-77
2024/04/24 00:30:23;;;;;;;14.73;10.73;;;;;;;11.43;76.40;93849.84;5480771;26;19994;-77
2024/04/24 00:32:48;;;;;;;17.08;10.23;;;;;;;11.52;75.86;93865.53;5481022;26;20011;-76
2024/04/24 00:35:13;;;;;;;14.95;10.00;;;;;;;11.59;75.56;93859.69;5483197;26;19994;-77
2024/04/24 00:37:39;;;;;;;15.43;10.10;;;;;;;11.63;75.44;93856.75;5479960;26;20002;-78
2024/04/24 00:40:06;;;;;;;18.35;10.95;;;;;;;11.72;75.14;93853.19;5450954;26;20786;-77
2024/04/24 00:42:31;;;;;;;15.57;10.07;;;;;;;11.70;75.08;93857.16;5484854;26;19994;-78
2024/04/24 00:44:57;;;;;;;15.07;10.18;;;;;;;11.75;74.83;93860.47;5481906;26;20336;-77
2024/04/24 00:47:22;;;;;;;14.18;10.23;;;;;;;11.82;74.52;93855.44;5482278;26;20002;-77
2024/04/24 00:49:48;;;;;;;16.42;10.32;;;;;;;11.86;74.40;93850.47;5480034;26;20396;-77
2024/04/24 00:52:14;;;;;;;14.23;10.10;;;;;;;11.88;74.23;93858.28;5481346;26;19994;-77
2024/04/24 00:54:39;;;;;;;15.23;10.32;;;;;;;11.92;74.21;93862.34;5479832;26;19998;-77
2024/04/24 00:57:05;;;;;;;15.80;10.07;;;;;;;11.89;74.11;93849.53;5450168;26;20005;-77
2024/04/24 00:59:31;;;;;;;17.50;10.38;;;;;;;11.90;73.93;93859.31;5449013;26;20448;-78
2024/04/24 01:01:56;;;;;;;14.60;10.02;;;;;;;11.95;74.10;93858.69;5480235;26;20026;-77
2024/04/24 01:04:21;;;;;;;15.82;11.13;;;;;;;11.96;73.77;93864.94;5450016;26;20337;-78
2024/04/24 01:06:47;;;;;;;14.88;10.80;;;;;;;12.00;73.57;93865.53;5484734;26;20009;-77
2024/04/24 01:09:12;;;;;;;14.65;10.98;;;;;;;12.03;73.45;93866.56;5483715;26;20389;-78
2024/04/24 01:11:37;;;;;;;19.80;11.57;;;;;;;12.04;73.45;93862.56;5484560;26;20005;-77
2024/04/24 01:14:03;;;;;;;16.13;10.50;;;;;;;11.96;73.64;93871.22;5485858;26;20005;-77
2024/04/24 01:16:31;;;;;;;14.98;10.32;;;;;;;12.00;74.05;93882.06;5484253;26;20071;-77
2024/04/24 01:19:39;;;;;;;14.32;11.05;;;;;;;12.02;73.91;93874.06;5483858;26;20440;-77
2024/04/24 01:22:29;;;;;;;12.18;10.02;;;;;;;12.04;73.99;93887.38;5484773;26;20034;-77
2024/04/24 01:25:15;;;;;;;14.77;10.77;;;;;;;12.01;73.61;93885.56;5484266;26;20421;-77
2024/04/24 01:27:40;;;;;;;18.73;11.63;;;;;;;12.00;73.66;93875.78;5483281;26;20026;-78
2024/04/24 01:30:06;;;;;;;16.88;10.93;;;;;;;11.93;74.04;93879.66;5484618;26;19998;-77
2024/04/24 01:32:31;;;;;;;15.73;11.30;;;;;;;11.89;74.22;93887.34;5484422;26;19995;-77
2024/04/24 01:34:57;;;;;;;15.98;10.63;;;;;;;11.96;73.88;93884.22;5485641;26;20358;-77
2024/04/24 01:37:22;;;;;;;17.13;11.57;;;;;;;11.99;74.10;93886.03;5483921;26;19994;-77
2024/04/24 01:39:48;;;;;;;17.10;11.48;;;;;;;11.91;74.04;93893.13;5486000;26;20071;-77
2024/04/24 01:42:13;;;;;;;16.80;11.25;;;;;;;11.93;74.06;93888.69;5482240;26;20424;-78
2024/04/24 01:44:38;;;;;;;15.40;11.20;;;;;;;11.98;73.73;93889.25;5485663;26;20330;-78
2024/04/24 01:47:04;;;;;;;16.83;10.77;;;;;;;12.01;73.67;93896.59;5488261;26;20092;-77
2024/04/24 01:49:29;;;;;;;15.95;11.23;;;;;;;11.99;73.74;93893.56;5483517;26;20009;-78
2024/04/24 01:51:55;;;;;;;16.85;11.23;;;;;;;12.01;73.39;93889.09;5483057;26;20047;-77
2024/04/24 01:54:20;;;;;;;16.05;11.15;;;;;;;12.01;73.38;93896.59;5452265;26;20006;-77
2024/04/24 01:56:45;;;;;;;17.70;11.20;;;;;;;11.92;73.82;93902.91;5485677;26;20140;-78
2024/04/24 01:59:11;;;;;;;16.30;10.68;;;;;;;11.88;74.07;93894.84;5484101;26;20002;-76
2024/04/24 02:01:36;;;;;;;16.55;10.98;;;;;;;11.96;73.71;93898.00;5483612;26;20469;-79
2024/04/24 02:04:01;;;;;;;15.95;10.95;;;;;;;11.96;73.32;93896.00;5484432;26;20009;-79
2024/04/24 02:06:27;;;;;;;17.27;11.00;;;;;;;12.02;73.62;93901.63;5485031;26;20132;-76
2024/04/24 02:08:52;;;;;;;16.42;11.15;;;;;;;12.01;73.50;93893.84;5484478;26;20005;-78
2024/04/24 02:11:20;;;;;;;16.13;10.98;;;;;;;12.04;73.31;93903.88;5482789;26;20010;-78
2024/04/24 02:13:46;;;;;;;16.13;11.10;;;;;;;12.04;73.17;93909.41;5485071;26;20014;-78
2024/04/24 02:16:11;;;;;;;16.02;11.63;;;;;;;12.06;73.37;93909.72;5482192;26;19994;-78
2024/04/24 02:18:36;;;;;;;17.55;11.48;;;;;;;12.04;73.16;93907.41;5483351;26;20050;-78
2024/04/24 02:21:08;;;;;;;15.90;11.65;;;;;;;11.95;73.62;93907.50;5482102;26;20005;-78
2024/04/24 02:23:35;;;;;;;18.20;11.45;;;;;;;11.86;74.14;93889.03;5482788;26;19991;-78
2024/04/24 02:26:07;;;;;;;18.63;12.27;;;;;;;11.93;74.13;93894.19;5482294;26;20034;-78
2024/04/24 02:28:36;;;;;;;17.97;12.43;;;;;;;11.91;73.89;93893.88;5483789;26;20006;-78
2024/04/24 02:31:01;;;;;;;16.55;11.48;;;;;;;11.98;73.87;93894.75;5482866;26;19998;-78
2024/04/24 02:33:26;;;;;;;15.90;12.05;;;;;;;11.96;73.94;93893.25;5481164;26;20030;-78
2024/04/24 02:35:52;;;;;;;18.27;12.20;;;;;;;12.02;73.89;93906.38;5483532;26;19994;-78
2024/04/24 02:38:17;;;;;;;16.80;12.02;;;;;;;12.01;73.74;93904.84;5481060;26;20005;-78
2024/04/24 02:40:43;;;;;;;16.85;11.63;;;;;;;12.02;73.62;93911.88;5484449;26;20463;-78
2024/04/24 02:43:08;;;;;;;22.50;13.13;;;;;;;12.04;73.58;93909.41;5484494;26;20010;-79
2024/04/24 02:45:34;;;;;;;18.20;11.68;;;;;;;12.06;73.57;93904.97;5481941;26;19994;-78
2024/04/24 02:47:59;;;;;;;20.15;11.85;;;;;;;12.07;73.75;93908.47;5482094;26;20508;-77
2024/04/24 02:50:25;;;;;;;16.30;12.00;;;;;;;12.06;73.81;93912.47;5482998;26;20009;-78
2024/04/24 02:52:50;;;;;;;18.48;12.95;;;;;;;12.00;73.66;93909.59;5453470;26;19998;-78
2024/04/24 02:55:16;;;;;;;21.52;11.27;;;;;;;12.04;73.82;93909.41;5483049;26;19994;-78
2024/04/24 02:57:41;;;;;;;16.98;12.52;;;;;;;11.91;73.86;93904.91;5482791;26;19998;-79
2024/04/24 03:00:07;;;;;;;20.02;11.70;;;;;;;11.94;73.88;93906.72;5481121;26;20066;-77
2024/04/24 03:02:32;;;;;;;19.70;12.88;;;;;;;12.02;73.73;93906.38;5481787;26;19994;-78
2024/04/24 03:04:58;;;;;;;16.25;11.75;;;;;;;12.01;73.71;93902.84;5483283;26;20148;-77
2024/04/24 03:07:23;;;;;;;17.20;11.32;;;;;;;12.02;73.42;93906.38;5481604;26;20417;-77
2024/04/24 03:09:48;;;;;;;18.42;12.68;;;;;;;12.09;73.26;93915.03;5422167;26;20034;-77
2024/04/24 03:12:15;;;;;;;18.17;12.25;;;;;;;12.15;73.30;93920.63;5482963;26;19998;-78
2024/04/24 03:14:40;;;;;;;18.75;12.05;;;;;;;12.17;73.19;93913.44;5483916;26;20266;-78
2024/04/24 03:17:05;;;;;;;17.45;11.85;;;;;;;12.18;73.09;93917.72;5482595;26;20002;-78
2024/04/24 03:19:31;;;;;;;20.67;13.77;;;;;;;12.19;73.07;93921.97;5483695;26;20009;-77
2024/04/24 03:21:56;;;;;;;17.75;11.73;;;;;;;12.21;73.07;93925.03;5481081;26;20022;-77
2024/04/24 03:24:22;;;;;;;17.48;11.75;;;;;;;12.27;72.79;93927.13;5451119;26;19994;-77
2024/04/24 03:26:47;;;;;;;16.15;12.40;;;;;;;12.28;72.75;93931.44;5482771;26;20066;-78
2024/04/24 03:29:12;;;;;;;16.88;12.02;;;;;;;12.22;72.87;93939.59;5480370;26;20488;-78
2024/04/24 03:31:38;;;;;;;17.02;12.55;;;;;;;12.27;72.78;93936.16;5483194;26;20006;-78
2024/04/24 03:34:03;;;;;;;17.75;12.35;;;;;;;12.25;72.79;93935.88;5482130;26;19998;-78
2024/04/24 03:36:28;;;;;;;18.08;12.48;;;;;;;12.27;72.57;93944.41;5484494;26;20005;-77
2024/04/24 03:38:55;;;;;;;17.23;13.25;;;;;;;12.27;72.67;93940.91;5483889;26;20005;-78
2024/04/24 03:41:21;;;;;;;17.75;12.30;;;;;;;12.29;72.53;93941.22;5451340;26;20095;-78
2024/04/24 03:43:47;;;;;;;17.63;11.25;;;;;;;12.23;72.67;93935.59;5481075;26;19994;-78
2024/04/24 03:46:12;;;;;;;18.90;12.55;;;;;;;12.25;72.74;93944.13;5482692;26;20360;-77
2024/04/24 03:48:38;;;;;;;20.25;12.18;;;;;;;12.25;72.77;93949.66;5482822;26;20008;-78
2024/04/24 03:51:03;;;;;;;18.73;12.25;;;;;;;12.28;72.59;93958.97;5482427;26;20385;-78
2024/04/24 03:53:28;;;;;;;16.70;11.88;;;;;;;12.26;72.65;93951.16;5483663;26;19998;-77
2024/04/24 03:55:54;;;;;;;19.40;12.00;;;;;;;12.17;73.06;93952.00;5481148;26;20328;-78
2024/04/24 03:58:20;;;;;;;16.67;12.05;;;;;;;12.23;72.35;93954.88;5451342;26;20074;-78
2024/04/24 04:00:46;;;;;;;15.90;11.25;;;;;;;12.24;72.39;93956.41;5482124;26;20448;-78
2024/04/24 04:03:11;;;;;;;13.98;10.95;;;;;;;12.29;72.39;93955.00;5480979;26;19994;-79
2024/04/24 04:05:37;;;;;;;19.80;11.63;;;;;;;12.33;72.04;93959.09;5450359;26;19990;-79
2024/04/24 04:08:02;;;;;;;17.08;11.93;;;;;;;12.31;72.10;93955.28;5480514;26;19995;-77
2024/04/24 04:10:28;;;;;;;16.80;11.50;;;;;;;12.32;72.30;93963.06;5481006;26;20385;-77
2024/04/24 04:12:53;;;;;;;16.38;11.10;;;;;;;12.30;72.31;93954.50;5481749;26;19995;-79
2024/04/24 04:15:18;;;;;;;17.23;11.45;;;;;;;12.37;72.01;93964.41;5481544;26;20005;-78
2024/04/24 04:17:44;;;;;;;19.85;11.95;;;;;;;12.40;71.83;93963.47;5479856;26;20009;-78
2024/04/24 04:20:10;;;;;;;19.33;11.90;;;;;;;12.39;71.94;93965.47;5482012;26;20005;-77
2024/04/24 04:22:36;;;;;;;17.95;11.43;;;;;;;12.43;71.96;93959.75;5478194;26;20002;-78
2024/04/24 04:25:01;;;;;;;27.83;12.60;;;;;;;12.45;72.13;93966.34;5482124;26;19998;-78
2024/04/24 04:27:29;;;;;;;15.05;11.25;;;;;;;12.44;72.19;93961.28;5479783;26;20094;-78
2024/04/24 04:29:54;;;;;;;16.02;12.77;;;;;;;12.48;71.77;93965.38;5480240;26;20436;-78
2024/04/24 04:32:20;;;;;;;17.63;11.23;;;;;;;12.53;71.80;93963.22;5483873;26;20034;-78
2024/04/24 04:34:46;;;;;;;17.42;12.32;;;;;;;12.55;71.65;93963.47;5479369;26;20009;-78
2024/04/24 04:37:12;;;;;;;18.67;11.88;;;;;;;12.57;71.40;93966.53;5482949;26;19998;-77
2024/04/24 04:39:37;;;;;;;17.73;12.25;;;;;;;12.58;71.18;93960.56;5480469;26;20001;-78
2024/04/24 04:42:03;;;;;;;18.08;12.85;;;;;;;12.52;71.37;93967.97;5486185;26;19998;-78
2024/04/24 04:44:28;;;;;;;17.90;12.38;;;;;;;12.49;71.41;93974.41;5483625;26;19998;-78
2024/04/24 04:46:53;;;;;;;16.00;11.57;;;;;;;12.53;71.13;93972.22;5485428;26;19995;-77
2024/04/24 04:49:19;;;;;;;16.80;12.00;;;;;;;12.61;71.07;93975.38;5486160;26;20009;-73
2024/04/24 04:51:44;;;;;;;24.08;12.30;;;;;;;12.67;71.07;93979.00;5484899;26;20005;-78
2024/04/24 04:54:10;;;;;;;16.85;10.70;;;;;;;12.71;71.17;93982.34;5484856;26;19998;-75
2024/04/24 04:56:35;;;;;;;14.88;11.05;;;;;;;12.74;70.97;93971.13;5484958;26;20063;-76
2024/04/24 04:59:00;;;;;;;17.38;11.57;;;;;;;12.80;71.21;93973.22;5486424;26;20081;-77
2024/04/24 05:01:26;;;;;;;21.08;12.48;;;;;;;12.85;71.14;93978.84;5454640;26;20001;-77
2024/04/24 05:03:51;;;;;;;16.92;11.52;;;;;;;12.87;71.21;93976.38;5482118;26;20298;-77
2024/04/24 05:06:16;;;;;;;17.40;12.27;;;;;;;12.91;70.59;93974.19;5482400;26;20005;-76
2024/04/24 05:08:42;;;;;;;18.23;11.40;;;;;;;12.96;70.45;93973.53;5452292;26;20078;-78
2024/04/24 05:11:07;;;;;;;17.58;11.70;;;;;;;13.01;70.47;93972.84;5486458;26;20309;-77
2024/04/24 05:13:33;;;;;;;19.00;12.82;;;;;;;13.03;70.56;93975.13;5452451;26;20074;-77
2024/04/24 05:15:58;;;;;;;16.75;11.23;;;;;;;13.08;70.17;93976.47;5486058;26;19995;-78
2024/04/24 05:18:24;;;;;;;15.25;10.57;;;;;;;13.11;69.86;93968.00;5484671;26;20066;-77
2024/04/24 05:20:50;;;;;;;17.02;10.57;;;;;;;13.07;69.69;93966.66;5484331;26;19994;-79
2024/04/24 05:23:16;;;;;;;16.73;11.13;;;;;;;13.03;69.92;93967.63;5485465;26;19994;-77
2024/04/24 05:25:41;;;;;;;15.57;11.50;;;;;;;12.98;69.94;93975.81;5483157;26;20018;-79
2024/04/24 05:30:51;;;;;;;18.17;11.30;;;;;;;13.20;69.37;93973.41;5482709;26;20004;-77
2024/04/24 05:33:17;;;;;;;17.10;12.40;;;;;;;13.28;69.50;93979.34;5485476;26;19998;-77
2024/04/24 05:35:42;;;;;;;16.40;11.20;;;;;;;13.30;69.76;93982.38;5484565;26;19998;-77
2024/04/24 05:38:07;;;;;;;17.52;12.30;;;;;;;13.37;69.83;93984.00;5485330;26;19994;-79
2024/04/24 05:40:33;;;;;;;18.25;11.38;;;;;;;13.44;69.37;93978.09;5482740;26;20030;-78
2024/04/24 05:42:58;;;;;;;18.27;12.52;;;;;;;13.42;69.54;93980.53;5484753;26;20005;-78
2024/04/24 05:45:24;;;;;;;15.15;11.40;;;;;;;13.50;69.20;93971.41;5483423;26;20066;-79
2024/04/24 05:47:49;;;;;;;13.90;10.70;;;;;;;13.47;68.78;93980.63;5482158;26;20076;-79
2024/04/24 05:50:15;;;;;;;19.77;12.38;;;;;;;13.57;68.82;93980.53;5485312;26;20001;-79
2024/04/24 05:52:40;;;;;;;16.90;12.18;;;;;;;13.58;68.77;93982.81;5482039;26;20008;-79
2024/04/24 05:55:05;;;;;;;18.08;11.23;;;;;;;13.59;68.99;93981.59;5485256;26;19994;-76
2024/04/24 05:57:31;;;;;;;15.77;11.73;;;;;;;13.69;68.71;93984.97;5484124;26;20069;-76
2024/04/24 05:59:56;;;;;;;16.20;11.57;;;;;;;13.70;68.42;93984.50;5484916;26;20005;-77
2024/04/24 06:02:22;;;;;;;18.00;11.82;;;;;;;13.73;68.03;93986.31;5484896;26;20432;-76
2024/04/24 06:04:47;;;;;;;16.45;11.65;;;;;;;13.82;67.90;93994.47;5482369;26;19994;-76
2024/04/24 06:07:13;;;;;;;20.90;11.85;;;;;;;13.89;67.74;93992.56;5487092;26;20009;-76
2024/04/24 06:09:39;;;;;;;18.90;12.02;;;;;;;14.04;67.25;93996.78;5482001;26;20006;-77
2024/04/24 06:12:05;;;;;;;17.02;11.50;;;;;;;14.03;66.37;93981.44;5483280;26;19998;-77
2024/04/24 06:14:31;;;;;;;16.65;9.93;;;;;;;14.05;66.35;93989.28;5451495;26;20054;-78
2024/04/24 06:16:56;;;;;;;14.30;10.32;;;;;;;14.08;66.03;93989.03;5484603;26;20312;-77
2024/04/24 06:19:22;;;;;;;12.93;9.35;;;;;;;14.18;65.76;93986.91;5484302;26;19994;-77
2024/04/24 06:21:48;;;;;;;16.13;9.80;;;;;;;14.08;65.69;93977.22;5485318;26;20086;-73
2024/04/24 06:24:14;;;;;;;12.35;7.55;;;;;;;13.99;65.37;93980.13;5454182;26;20008;-77
2024/04/24 06:26:40;;;;;;;10.10;6.47;;;;;;;14.06;64.67;93977.72;5482944;26;20516;-76
2024/04/24 06:29:05;;;;;;;9.93;6.20;;;;;;;14.17;64.21;93976.34;5484775;26;20013;-78
2024/04/24 06:31:31;;;;;;;9.40;6.53;;;;;;;14.32;63.92;93991.59;5481358;26;19997;-77
2024/04/24 06:33:56;;;;;;;10.10;7.63;;;;;;;14.36;63.70;93991.41;5484401;26;19994;-77
2024/04/24 06:36:21;;;;;;;9.93;6.40;;;;;;;14.00;64.79;93992.72;5482127;26;20074;-77
2024/04/24 06:38:47;;;;;;;12.73;7.22;;;;;;;14.13;64.64;93989.59;5482026;26;20336;-77
2024/04/24 06:41:14;;;;;;;11.30;6.95;;;;;;;14.28;64.50;93999.38;5484513;26;20010;-77
2024/04/24 06:43:40;;;;;;;11.93;6.28;;;;;;;14.16;63.84;93992.16;5481476;26;20070;-77
2024/04/24 06:46:06;;;;;;;8.68;5.95;;;;;;;14.35;62.92;93992.66;5484588;26;20002;-77
2024/04/24 06:48:31;;;;;;;11.50;5.53;;;;;;;14.46;62.87;93989.28;5481198;26;20006;-77
2024/04/24 06:50:59;;;;;;;8.23;4.68;;;;;;;14.56;62.03;93994.19;5484778;26;20067;-76
2024/04/24 06:53:24;;;;;;;8.65;4.32;;;;;;;14.56;61.45;93990.66;5481721;26;20005;-77
2024/04/24 06:55:49;;;;;;;6.95;4.32;;;;;;;14.68;61.23;93995.09;5483372;26;20062;-77
2024/04/24 06:58:15;;;;;;;11.68;4.60;;;;;;;14.76;60.83;93990.63;5483577;26;20361;-77
2024/04/24 07:00:40;;;;;;;8.27;4.50;;;;;;;14.68;60.93;93992.31;5481477;26;19998;-76
2024/04/24 07:03:06;;;;;;;8.52;4.47;;;;;;;14.76;61.03;93987.13;5451148;26;19994;-77
2024/04/24 07:05:32;;;;;;;7.55;4.57;;;;;;;14.83;60.24;94004.03;5481106;26;20727;-77
2024/04/24 07:07:57;;;;;;;7.10;4.07;;;;;;;14.84;59.93;94002.03;5482704;26;20071;-77
2024/04/24 07:10:23;;;;;;;8.60;4.20;;;;;;;14.73;60.04;93991.59;5481360;26;20006;-75
2024/04/24 07:12:48;;;;;;;7.65;3.45;;;;;;;14.88;58.53;93997.06;5485470;26;20008;-79
2024/04/24 07:15:13;;;;;;;6.45;3.10;;;;;;;14.81;58.13;93989.19;5483409;26;19994;-77
2024/04/24 07:17:39;;;;;;;5.93;2.97;;;;;;;14.99;57.40;93991.63;5485188;26;20005;-77
2024/04/24 07:20:05;;;;;;;6.50;2.70;;;;;;;14.83;56.40;93992.22;5451243;26;19998;-76
2024/04/24 07:22:30;;;;;;;9.57;3.92;;;;;;;14.81;55.78;93989.19;5482508;26;19998;-77
2024/04/24 07:24:57;;;;;;;6.68;2.60;;;;;;;14.78;56.13;93999.19;5481301;26;20009;-78
2024/04/24 07:27:23;;;;;;;6.88;2.92;;;;;;;14.85;56.43;93993.25;5481833;26;20441;-78
2024/04/24 07:29:48;;;;;;;7.55;2.92;;;;;;;15.11;56.40;93993.25;5483019;26;20005;-78
2024/04/24 07:32:13;;;;;;;6.35;2.83;;;;;;;15.31;55.79;93978.59;5450344;26;20426;-78
2024/04/24 07:34:39;;;;;;;6.25;2.90;;;;;;;15.24;55.98;93992.84;5480913;26;19998;-78
2024/04/24 07:37:04;;;;;;;13.75;3.90;;;;;;;15.19;56.36;93973.44;5481112;26;19998;-78
2024/04/24 07:39:30;;;;;;;8.32;3.58;;;;;;;15.27;55.82;93974.53;5482998;26;20306;-77
2024/04/24 07:41:55;;;;;;;5.57;2.67;;;;;;;15.27;54.85;93983.59;5483222;26;19998;-77
2024/04/24 07:44:20;;;;;;;4.50;2.88;;;;;;;15.32;54.33;93980.09;5480601;26;20387;-77
2024/04/24 07:46:46;;;;;;;6.10;2.28;;;;;;;15.36;54.58;93988.94;5481402;26;20013;-77
2024/04/24 07:49:11;;;;;;;5.63;1.90;;;;;;;15.58;53.67;93985.59;5482296;26;19994;-78
2024/04/24 07:51:36;;;;;;;4.88;2.28;;;;;;;15.58;52.99;93991.13;5482748;26;19994;-78
2024/04/24 07:54:02;;;;;;;6.13;2.10;;;;;;;15.51;53.09;93991.59;5480329;26;20009;-78
2024/04/24 07:56:29;;;;;;;6.05;2.20;;;;;;;15.60;53.09;93988.66;5482339;26;20005;-77
2024/04/24 07:58:55;;;;;;;7.15;2.20;;;;;;;15.72;52.63;93989.50;5480142;26;20026;-77
2024/04/24 08:01:21;;;;;;;4.43;2.05;;;;;;;15.76;53.13;93994.81;5481790;26;20361;-78
2024/04/24 08:03:46;;;;;;;6.38;1.80;;;;;;;15.93;52.42;93998.44;5482571;26;20001;-77
2024/04/24 08:06:12;;;;;;;6.20;2.33;;;;;;;16.12;51.33;93984.97;5481849;26;20030;-78
2024/04/24 08:08:38;;;;;;;6.03;1.77;;;;;;;16.26;50.81;93997.88;5482661;26;20021;-78
2024/04/24 08:11:03;;;;;;;4.10;1.90;;;;;;;16.36;50.43;93990.88;5480362;26;19998;-77
2024/04/24 08:13:29;;;;;;;4.78;2.10;;;;;;;16.51;50.38;93999.00;5483172;26;20009;-78
2024/04/24 08:15:54;;;;;;;5.05;2.20;;;;;;;16.55;49.50;93993.97;5482665;26;20001;-78
2024/04/24 08:18:20;;;;;;;5.72;2.90;;;;;;;16.62;49.06;93990.72;5482728;26;19994;-76
2024/04/24 08:20:45;;;;;;;7.32;1.98;;;;;;;16.76;49.50;93996.63;5482128;26;19994;-78
2024/04/24 08:23:11;;;;;;;6.78;2.20;;;;;;;16.91;48.97;93994.38;5479486;26;20336;-76
2024/04/24 08:25:36;;;;;;;4.68;1.83;;;;;;;16.78;48.79;94002.41;5482078;26;20428;-78
2024/04/24 08:28:02;;;;;;;5.60;2.30;;;;;;;16.78;48.56;94000.41;5481068;26;20306;-78
2024/04/24 08:30:27;;;;;;;10.15;2.25;;;;;;;16.85;48.57;93996.38;5482149;26;20008;-78
2024/04/24 08:32:53;;;;;;;4.00;2.33;;;;;;;16.86;48.19;93990.34;5481182;26;20074;-78
2024/04/24 08:35:19;;;;;;;7.97;2.30;;;;;;;16.89;48.37;93983.03;5480451;26;19998;-79
2024/04/24 08:37:44;;;;;;;6.40;1.92;;;;;;;17.01;48.44;93990.13;5479707;26;20286;-79
2024/04/24 08:40:10;;;;;;;5.97;2.10;;;;;;;17.00;48.44;93991.38;5481578;26;19998;-79
2024/04/24 08:42:35;;;;;;;6.53;1.90;;;;;;;17.09;48.10;93982.03;5480434;26;20047;-78
2024/04/24 08:45:01;;;;;;;7.30;2.17;;;;;;;17.08;47.75;93975.72;5479044;26;20070;-78
2024/04/24 08:47:27;;;;;;;9.40;2.00;;;;;;;17.26;47.37;93974.50;5482366;26;20005;-78
2024/04/24 08:49:55;;;;;;;5.15;2.00;;;;;;;17.42;46.84;93970.22;5479113;26;20405;-78
2024/04/24 08:52:22;;;;;;;4.78;1.75;;;;;;;17.44;46.04;93957.34;5480164;26;20371;-78
2024/04/24 08:54:51;;;;;;;3.55;1.60;;;;;;;17.60;45.55;93968.94;5479156;26;20082;-78
2024/04/24 08:57:17;;;;;;;5.57;1.88;;;;;;;17.77;45.09;93975.28;5481236;26;20074;-78
2024/04/24 08:59:46;;;;;;;6.68;1.85;;;;;;;17.86;45.35;93974.28;5449573;26;20420;-79
2024/04/24 09:02:13;;;;;;;4.38;1.50;;;;;;;18.19;44.72;93967.88;5480823;26;20010;-79
2024/04/24 09:04:45;;;;;;;5.13;1.40;;;;;;;18.40;43.88;93973.88;5480015;26;20059;-78
2024/04/24 09:07:11;;;;;;;3.70;1.30;;;;;;;18.52;43.67;93976.13;5482523;26;20006;-78
2024/04/24 09:09:37;;;;;;;4.80;1.58;;;;;;;18.70;43.61;93971.28;5481557;26;20008;-78
2024/04/24 09:12:05;;;;;;;8.65;1.80;;;;;;;18.63;43.06;93961.38;5478969;26;19995;-78
2024/04/24 09:14:32;;;;;;;7.43;2.33;;;;;;;18.83;42.94;93963.09;5481064;26;19998;-78
2024/04/24 09:16:57;;;;;;;7.57;1.95;;;;;;;18.79;43.14;93966.16;5479400;26;20009;-78
2024/04/24 09:19:25;;;;;;;6.57;2.47;;;;;;;18.84;42.52;93961.81;5478725;26;20471;-79
2024/04/24 09:21:51;;;;;;;6.85;2.42;;;;;;;18.72;42.44;93963.16;5483666;26;20006;-78
2024/04/24 09:24:16;;;;;;;5.80;2.55;;;;;;;18.45;42.75;93957.16;5481668;26;19998;-78
2024/04/24 09:26:42;;;;;;;5.90;2.05;;;;;;;18.58;43.24;93962.19;5481057;26;19994;-78
2024/04/24 09:29:11;;;;;;;2.65;1.45;;;;;;;18.80;42.67;93955.75;5484248;26;19995;-79
2024/04/24 09:31:38;;;;;;;7.93;1.38;;;;;;;18.98;42.33;93944.03;5484521;26;19994;-78
2024/04/24 09:34:03;;;;;;;8.27;2.72;;;;;;;18.99;42.25;93947.56;5482865;26;19997;-78
2024/04/24 09:36:32;;;;;;;8.10;3.05;;;;;;;19.23;42.05;93942.09;5482008;26;20022;-79
2024/04/24 09:38:58;;;;;;;10.60;2.72;;;;;;;19.28;41.59;93949.66;5483380;26;20013;-78
2024/04/24 09:41:24;;;;;;;10.23;3.83;;;;;;;19.37;41.56;93945.78;5481799;26;20383;-78
2024/04/24 09:43:50;;;;;;;8.32;3.10;;;;;;;19.55;41.88;93938.78;5452574;26;20421;-78
2024/04/24 09:46:18;;;;;;;4.15;2.13;;;;;;;19.66;40.66;93935.19;5484248;26;20014;-79
2024/04/24 09:48:44;;;;;;;7.88;3.03;;;;;;;19.61;40.50;93939.53;5482525;26;19998;-78
2024/04/24 09:51:11;;;;;;;6.65;1.70;;;;;;;19.58;40.64;93929.41;5482483;26;20103;-79
2024/04/24 09:53:36;;;;;;;5.50;1.60;;;;;;;19.81;40.55;93929.97;5483640;26;20004;-78
2024/04/24 09:56:10;;;;;;;2.60;1.25;;;;;;;20.19;40.11;93927.31;5482506;26;19998;-78
2024/04/24 09:58:36;;;;;;;4.97;1.70;;;;;;;20.17;40.16;93934.16;5482116;26;20322;-78
2024/04/24 10:01:04;;;;;;;5.70;1.40;;;;;;;20.43;40.13;93924.50;5453122;26;20002;-77
2024/04/24 10:03:33;;;;;;;9.98;2.63;;;;;;;20.64;39.46;93930.34;5486294;26;20411;-77
2024/04/24 10:06:01;;;;;;;3.55;1.50;;;;;;;20.76;39.20;93922.56;5451711;26;19994;-77
2024/04/24 10:08:29;;;;;;;4.00;1.60;;;;;;;20.75;39.65;93929.44;5482848;26;19994;-77
2024/04/24 10:10:56;;;;;;;5.10;1.48;;;;;;;21.05;38.82;93930.06;5481514;26;20014;-78
2024/04/24 10:13:23;;;;;;;7.28;1.35;;;;;;;21.34;38.62;93936.03;5482770;26;20017;-78
2024/04/24 10:15:58;;;;;;;9.60;1.98;;;;;;;21.67;38.06;93929.88;5481635;26;20141;-78
2024/04/24 10:18:25;;;;;;;3.08;1.23;;;;;;;21.76;36.67;93930.75;5482632;26;19998;-80
2024/04/24 10:20:50;;;;;;;2.63;1.23;;;;;;;21.66;37.21;93924.81;5481610;26;20006;-77
2024/04/24 10:23:17;;;;;;;7.45;1.42;;;;;;;21.80;36.89;93922.81;5451852;26;20038;-77
2024/04/24 10:25:43;;;;;;;4.90;1.30;;;;;;;21.87;37.25;93919.38;5481948;26;20002;-78
2024/04/24 10:28:08;;;;;;;5.60;1.92;;;;;;;22.19;36.89;93920.09;5486705;26;19998;-77
2024/04/24 10:30:35;;;;;;;5.47;1.65;;;;;;;22.47;36.40;93918.78;5484384;26;20043;-79
2024/04/24 10:33:04;;;;;;;6.53;1.67;;;;;;;22.45;36.26;93915.78;5481233;26;19998;-78
2024/04/24 10:35:29;;;;;;;4.90;1.58;;;;;;;22.52;35.52;93913.06;5483057;26;20199;-79
2024/04/24 10:37:58;;;;;;;4.28;1.67;;;;;;;22.68;35.66;93907.66;5480325;26;20006;-79
2024/04/24 10:40:27;;;;;;;6.72;1.90;;;;;;;22.78;35.07;93898.28;5482083;26;19998;-79
2024/04/24 10:43:02;;;;;;;3.65;1.60;;;;;;;22.91;35.14;93907.97;5484138;26;20009;-80
2024/04/24 10:45:29;;;;;;;5.35;1.75;;;;;;;22.72;34.99;93900.44;5483410;26;20341;-79
2024/04/24 10:47:58;;;;;;;6.85;1.70;;;;;;;22.74;35.02;93903.44;5482231;26;20013;-79
2024/04/24 10:50:27;;;;;;;8.80;1.70;;;;;;;22.87;34.93;93908.28;5481248;26;20005;-79
2024/04/24 10:52:53;;;;;;;10.10;1.95;;;;;;;22.90;34.75;93901.63;5482552;26;20330;-78
2024/04/24 10:55:19;;;;;;;8.00;2.28;;;;;;;22.92;34.54;93909.47;5481978;26;19995;-79
2024/04/24 10:57:49;;;;;;;5.25;1.60;;;;;;;22.82;34.89;93911.19;5486124;26;19998;-79
2024/04/24 11:00:16;;;;;;;8.13;1.92;;;;;;;22.51;35.04;93916.41;5482214;26;19998;-79
2024/04/24 11:02:46;;;;;;;8.55;2.45;;;;;;;22.57;35.20;93905.09;5482877;26;20564;-80
2024/04/24 11:05:12;;;;;;;5.10;2.60;;;;;;;22.73;35.40;93901.94;5484447;26;20070;-80
2024/04/24 11:07:38;;;;;;;11.07;3.03;;;;;;;22.58;35.75;93895.41;5483226;26;20008;-80
2024/04/24 11:10:06;;;;;;;5.13;2.15;;;;;;;22.49;35.61;93902.22;5481994;26;20440;-80
2024/04/24 11:12:39;;;;;;;9.73;2.53;;;;;;;22.58;35.64;93898.94;5481698;26;19998;-79
2024/04/24 11:15:24;;;;;;;6.15;2.25;;;;;;;22.48;35.71;93900.69;5481619;26;20098;-79
2024/04/24 11:17:52;;;;;;;9.73;2.47;;;;;;;22.74;35.50;93905.50;5483953;26;20006;-80
2024/04/24 11:20:19;;;;;;;3.90;1.50;;;;;;;22.90;34.89;93898.81;5481093;26;19998;-79
2024/04/24 11:22:44;;;;;;;4.32;1.23;;;;;;;23.09;34.37;93903.50;5482538;26;20453;-80